Dry Valley, Nevada
Current Conditions -  °F | °C
As of 11:53 AM on Sunday 23 Nov 2014 (Local Time) from KELY Reporting Station
Clear Clear  
Wind Chill: 30°   Ceiling: Unl
Heat Index: 36°   Visibility: 10mi
Dew Point: 26°   Wind: 7mph
Humidity: 67%   Direction: 340°NNW
Pressure: 30.28"   Gusts: NA
Location:  38.2635°N, 114.484°W
Report Text: KELY 231953Z AUTO 34006KT 10SM CLR 02/M03 A3028 RMK AO2 SLP257 T00221033 $
Loading
Personal Weather Stations






























Interactive Weather Map New forecast layout! Learn more

10-Day Weather Forecast

Advertisements
Track Severe Weather on mobile